createdAt,value
2024-04-10T00:00:32.762Z,80.11
2024-04-10T00:03:00.010Z,82.68
2024-04-10T00:05:27.747Z,85.26
2024-04-10T00:07:55.169Z,87.29
2024-04-10T00:10:22.961Z,88.80
2024-04-10T00:12:50.783Z,90.68
2024-04-10T00:15:19.105Z,92.12
2024-04-10T00:17:49.506Z,94.04
2024-04-10T00:20:17.394Z,94.78
2024-04-10T00:22:45.152Z,94.45
2024-04-10T00:25:12.743Z,95.20
2024-04-10T00:27:41.261Z,95.40
2024-04-10T00:30:09.751Z,94.67
2024-04-10T00:32:37.238Z,93.57
2024-04-10T00:35:08.118Z,92.79
2024-04-10T00:37:35.589Z,93.05
2024-04-10T00:40:02.917Z,92.13
2024-04-10T00:42:30.185Z,91.63
2024-04-10T00:45:00.755Z,91.29
2024-04-10T00:47:28.828Z,91.35
2024-04-10T00:49:57.293Z,90.65
2024-04-10T00:52:28.192Z,90.73
2024-04-10T00:54:55.836Z,90.62
2024-04-10T00:57:23.234Z,89.29
2024-04-10T00:59:50.872Z,88.22
2024-04-10T01:02:18.330Z,87.95
2024-04-10T01:04:45.776Z,87.36
2024-04-10T01:07:13.156Z,85.84
2024-04-10T01:09:43.237Z,84.04
2024-04-10T01:12:10.646Z,82.65
2024-04-10T01:14:38.832Z,82.60
2024-04-10T01:17:06.400Z,83.58
2024-04-10T01:19:34.117Z,82.85
2024-04-10T01:22:01.463Z,82.41
2024-04-10T01:24:31.740Z,82.47
2024-04-10T01:26:58.974Z,81.67
2024-04-10T01:29:26.382Z,81.75
2024-04-10T01:31:53.892Z,81.97
2024-04-10T01:34:21.530Z,80.70
2024-04-10T01:36:48.926Z,81.08
2024-04-10T01:39:16.163Z,81.31
2024-04-10T01:41:46.261Z,82.80
2024-04-10T01:44:13.650Z,82.38
2024-04-10T01:46:41.007Z,82.67
2024-04-10T01:49:08.856Z,82.97
2024-04-10T01:51:36.194Z,83.47
2024-04-10T01:54:03.590Z,84.48
2024-04-10T01:56:30.975Z,84.66
2024-04-10T01:59:01.325Z,84.77
2024-04-10T02:01:29.137Z,84.46
2024-04-10T02:03:56.527Z,83.86
2024-04-10T02:06:23.815Z,82.75
2024-04-10T02:08:51.270Z,83.76
2024-04-10T02:11:18.666Z,83.54
2024-04-10T02:13:46.083Z,83.14
2024-04-10T02:16:16.115Z,83.24
2024-04-10T02:18:43.487Z,81.62
2024-04-10T02:21:10.937Z,80.44
2024-04-10T02:23:38.283Z,78.99
2024-04-10T02:26:11.921Z,78.29
2024-04-10T02:28:39.835Z,78.19
2024-04-10T02:31:07.936Z,78.89
2024-04-10T02:33:38.245Z,78.60
2024-04-10T02:36:06.744Z,79.17
2024-04-10T02:38:35.762Z,78.10
2024-04-10T02:41:03.578Z,77.44
2024-04-10T02:43:32.095Z,77.74
2024-04-10T02:46:01.226Z,77.59
2024-04-10T02:48:30.719Z,77.88
2024-04-10T02:51:01.465Z,75.11
2024-04-10T02:53:28.742Z,74.07
2024-04-10T02:55:56.722Z,72.42
2024-04-10T02:58:24.808Z,72.13
2024-04-10T03:00:53.987Z,70.27
2024-04-10T03:03:22.387Z,70.75
2024-04-10T03:06:04.577Z,69.77
2024-04-10T03:08:32.492Z,68.60
2024-04-10T03:11:00.343Z,68.65
2024-04-10T03:13:27.769Z,68.16
2024-04-10T03:15:55.194Z,66.98
2024-04-10T03:18:22.543Z,67.36
2024-04-10T03:20:50.040Z,67.27
2024-04-10T03:23:20.884Z,66.97
2024-04-10T03:25:48.664Z,66.04
2024-04-10T03:28:16.085Z,65.88
2024-04-10T03:30:44.768Z,64.95
2024-04-10T03:33:12.181Z,64.43
2024-04-10T03:35:39.678Z,64.91
2024-04-10T03:38:07.044Z,64.36
2024-04-10T03:40:37.138Z,63.70
2024-04-10T03:43:04.683Z,63.68
2024-04-10T03:45:31.989Z,62.86
2024-04-10T03:47:59.763Z,61.74
2024-04-10T03:50:27.160Z,61.50
2024-04-10T03:52:54.497Z,61.47
2024-04-10T03:55:22.763Z,60.76
2024-04-10T03:57:52.783Z,60.61
2024-04-10T04:00:20.150Z,60.93
2024-04-10T04:02:47.701Z,60.12
2024-04-10T04:05:15.204Z,60.51
2024-04-10T04:07:42.676Z,60.15
2024-04-10T04:10:10.092Z,60.20
2024-04-10T04:12:37.468Z,60.24
2024-04-10T04:15:08.624Z,60.63
2024-04-10T04:17:36.100Z,60.10
2024-04-10T04:20:03.985Z,60.22
2024-04-10T04:22:31.494Z,59.69
2024-04-10T04:24:58.875Z,60.18
2024-04-10T04:27:26.461Z,59.72
2024-04-10T04:29:53.797Z,59.54
2024-04-10T04:32:23.782Z,59.48
2024-04-10T04:34:51.396Z,58.51
2024-04-10T04:37:19.197Z,58.15
2024-04-10T04:39:50.510Z,57.92
2024-04-10T04:42:17.917Z,58.42
2024-04-10T04:44:45.469Z,58.39
2024-04-10T04:47:13.056Z,58.06
2024-04-10T04:49:43.228Z,57.77
2024-04-10T04:52:10.845Z,58.58
2024-04-10T04:54:38.273Z,57.70
2024-04-10T04:57:06.006Z,57.15
2024-04-10T04:59:33.534Z,57.35
2024-04-10T05:02:00.972Z,57.27
2024-04-10T05:04:28.600Z,56.95
2024-04-10T05:06:59.018Z,57.07
2024-04-10T05:09:26.530Z,57.03
2024-04-10T05:11:54.471Z,56.28
2024-04-10T05:14:22.578Z,55.63
2024-04-10T05:16:50.166Z,55.39
2024-04-10T05:19:17.499Z,55.51
2024-04-10T05:21:45.151Z,55.00
2024-04-10T05:24:15.215Z,54.53
2024-04-10T05:26:43.245Z,54.47
2024-04-10T05:29:10.542Z,54.31
2024-04-10T05:31:37.981Z,54.50
2024-04-10T05:34:05.816Z,54.12
2024-04-10T05:36:33.395Z,53.35
2024-04-10T05:39:01.806Z,52.98
2024-04-10T05:41:32.125Z,52.84
2024-04-10T05:43:59.699Z,52.73
2024-04-10T05:46:27.897Z,52.09
2024-04-10T05:48:55.444Z,52.37
2024-04-10T05:51:22.999Z,52.32
2024-04-10T05:53:50.683Z,51.30
2024-04-10T05:56:18.052Z,51.39
2024-04-10T05:58:48.673Z,51.19
2024-04-10T06:01:16.745Z,51.63
2024-04-10T06:03:46.324Z,51.07
2024-04-10T06:06:14.641Z,50.33
2024-04-10T06:08:42.479Z,50.26
2024-04-10T06:11:10.443Z,50.03
2024-04-10T06:13:40.713Z,49.57
2024-04-10T06:16:10.939Z,49.64
2024-04-10T06:18:38.438Z,49.39
2024-04-10T06:21:06.288Z,48.84
2024-04-10T06:23:35.281Z,48.68
2024-04-10T06:26:02.941Z,48.95
2024-04-10T06:28:32.357Z,48.11
2024-04-10T06:31:01.858Z,48.28
2024-04-10T06:33:33.082Z,47.42
2024-04-10T06:36:01.380Z,47.33
2024-04-10T06:38:29.103Z,47.10
2024-04-10T06:40:57.366Z,46.77
2024-04-10T06:43:24.922Z,46.45
2024-04-10T06:45:57.081Z,46.09
2024-04-10T06:48:24.751Z,45.90
2024-04-10T06:50:56.878Z,45.59
2024-04-10T06:53:25.094Z,45.19
2024-04-10T06:55:56.820Z,45.24
2024-04-10T06:58:25.189Z,45.01
2024-04-10T07:00:59.627Z,45.15
2024-04-10T07:03:28.140Z,45.18
2024-04-10T07:06:07.301Z,45.14
2024-04-10T07:08:38.657Z,45.39
2024-04-10T07:11:08.385Z,45.48
2024-04-10T07:13:35.830Z,45.20
2024-04-10T07:16:06.370Z,44.98
2024-04-10T07:18:37.514Z,45.06
2024-04-10T07:21:11.056Z,45.47
2024-04-10T07:23:40.076Z,45.26
2024-04-10T07:26:13.870Z,45.06
2024-04-10T07:28:48.173Z,44.83
2024-04-10T07:31:17.907Z,44.40
2024-04-10T07:33:45.826Z,44.19
2024-04-10T07:36:18.804Z,43.77
2024-04-10T07:38:47.339Z,43.45
2024-04-10T07:41:15.207Z,43.88
2024-04-10T07:43:43.312Z,43.15
2024-04-10T07:46:12.171Z,43.10
2024-04-10T07:48:44.996Z,42.64
2024-04-10T07:51:17.160Z,42.65
2024-04-10T07:53:45.254Z,42.81
2024-04-10T07:56:13.032Z,42.93
2024-04-10T07:58:41.006Z,42.64
2024-04-10T08:01:10.407Z,42.63
2024-04-10T08:03:38.070Z,42.85
2024-04-10T08:06:07.404Z,42.68
2024-04-10T08:08:37.944Z,42.57
2024-04-10T08:11:07.370Z,42.63
2024-04-10T08:13:35.450Z,42.28
2024-04-10T08:16:04.375Z,41.48
2024-04-10T08:18:33.983Z,41.29
2024-04-10T08:21:01.972Z,41.18
2024-04-10T08:23:30.764Z,40.63
2024-04-10T08:26:02.187Z,40.27
2024-04-10T08:28:29.731Z,39.93
2024-04-10T08:30:58.066Z,39.66
2024-04-10T08:33:26.315Z,39.55
2024-04-10T08:35:56.726Z,39.36
2024-04-10T08:38:24.262Z,39.21
2024-04-10T08:40:53.872Z,39.21
2024-04-10T08:43:24.280Z,39.25
2024-04-10T08:45:51.921Z,39.39
2024-04-10T08:48:21.331Z,39.35
2024-04-10T08:50:50.623Z,39.04
2024-04-10T08:53:20.132Z,38.88
2024-04-10T08:55:54.659Z,38.75
2024-04-10T08:58:33.539Z,38.14
2024-04-10T09:01:01.056Z,37.87
2024-04-10T09:03:29.097Z,37.34
2024-04-10T09:06:04.330Z,37.62
2024-04-10T09:08:31.807Z,37.27
2024-04-10T09:10:59.640Z,38.05
2024-04-10T09:13:27.258Z,37.82
2024-04-10T09:15:59.410Z,38.32
2024-04-10T09:18:27.136Z,38.15
2024-04-10T09:21:05.875Z,37.76
2024-04-10T09:23:33.455Z,38.08
2024-04-10T09:26:00.894Z,38.28
2024-04-10T09:28:28.667Z,38.25
2024-04-10T09:31:01.429Z,38.33
2024-04-10T09:33:34.022Z,38.04
2024-04-10T09:36:04.464Z,38.29
2024-04-10T09:38:35.894Z,37.91
2024-04-10T09:41:04.887Z,38.23
2024-04-10T09:43:33.299Z,38.20
2024-04-10T09:46:04.956Z,38.84
2024-04-10T09:48:33.748Z,38.66
2024-04-10T09:51:04.516Z,38.67
2024-04-10T09:53:34.411Z,38.74
2024-04-10T09:56:07.280Z,39.26
2024-04-10T09:58:36.591Z,39.40
2024-04-10T10:01:07.351Z,39.51
2024-04-10T10:03:35.563Z,39.64
2024-04-10T10:06:05.130Z,39.51
2024-04-10T10:08:34.686Z,39.65
2024-04-10T10:11:02.987Z,39.93
2024-04-10T10:13:31.870Z,40.10
2024-04-10T10:16:01.069Z,41.06
2024-04-10T10:18:34.505Z,40.26
2024-04-10T10:21:05.308Z,41.16
2024-04-10T10:23:32.959Z,40.90
2024-04-10T10:26:00.724Z,43.25
2024-04-10T10:28:29.393Z,41.22
2024-04-10T10:31:08.362Z,42.01
2024-04-10T10:33:39.941Z,41.39
2024-04-10T10:36:08.184Z,41.30
2024-04-10T10:38:36.563Z,41.59
2024-04-10T10:41:13.634Z,43.30
2024-04-10T10:43:45.134Z,42.21
2024-04-10T10:46:13.288Z,41.99
2024-04-10T10:48:44.030Z,41.85
2024-04-10T10:51:15.241Z,41.87
2024-04-10T10:53:42.912Z,41.69
2024-04-10T10:56:10.432Z,40.97
2024-04-10T10:58:38.118Z,41.25
2024-04-10T11:01:08.685Z,40.52
2024-04-10T11:03:38.753Z,40.67
2024-04-10T11:06:13.358Z,39.92
2024-04-10T11:08:43.894Z,39.23
2024-04-10T11:11:16.208Z,38.89
2024-04-10T11:13:51.275Z,38.30
2024-04-10T11:16:26.452Z,37.92
2024-04-10T11:18:54.328Z,39.28
2024-04-10T11:21:24.732Z,37.46
2024-04-10T11:23:52.531Z,36.66
2024-04-10T11:26:20.410Z,36.39
2024-04-10T11:28:54.177Z,34.53
2024-04-10T11:31:22.632Z,35.12
2024-04-10T11:33:50.716Z,35.08
2024-04-10T11:36:18.311Z,36.52
2024-04-10T11:38:50.150Z,34.84
2024-04-10T11:41:17.986Z,35.62
2024-04-10T11:43:48.178Z,35.66
2024-04-10T11:46:15.851Z,35.60
2024-04-10T11:48:43.340Z,34.75
2024-04-10T11:51:11.373Z,33.91
2024-04-10T11:53:39.887Z,34.95
2024-04-10T11:56:10.781Z,35.25
2024-04-10T11:58:38.235Z,35.23
2024-04-10T12:01:06.044Z,35.24
2024-04-10T12:03:33.961Z,35.57
2024-04-10T12:06:01.542Z,35.17
2024-04-10T12:08:33.537Z,33.81
2024-04-10T12:11:01.588Z,33.98
2024-04-10T12:13:32.305Z,33.57
2024-04-10T12:15:59.756Z,34.14
2024-04-10T12:18:27.402Z,34.23
2024-04-10T12:20:54.904Z,33.26
2024-04-10T12:23:22.328Z,32.67
2024-04-10T12:25:50.048Z,32.09
2024-04-10T12:28:18.661Z,31.85
2024-04-10T12:30:49.793Z,31.49
2024-04-10T12:33:17.796Z,31.19
2024-04-10T12:35:45.729Z,30.78
2024-04-10T12:38:13.259Z,30.22
2024-04-10T12:40:41.206Z,30.15
2024-04-10T12:43:08.994Z,29.99
2024-04-10T12:45:36.655Z,29.73
2024-04-10T12:48:07.993Z,30.44
2024-04-10T12:50:35.510Z,29.87
2024-04-10T12:53:03.089Z,30.59
2024-04-10T12:55:30.572Z,30.23
2024-04-10T12:57:58.239Z,30.92
2024-04-10T13:00:27.215Z,31.26
2024-04-10T13:02:55.577Z,31.27
2024-04-10T13:05:27.493Z,30.96
2024-04-10T13:09:56.192Z,30.53
2024-04-10T13:12:24.210Z,30.51
2024-04-10T13:14:53.722Z,31.35
2024-04-10T13:17:21.736Z,31.03
2024-04-10T13:19:49.203Z,30.44
2024-04-10T13:22:17.583Z,30.36
2024-04-10T13:24:48.239Z,29.46
2024-04-10T13:27:18.546Z,29.19
2024-04-10T13:29:51.207Z,28.95
2024-04-10T13:32:22.632Z,29.11
2024-04-10T13:34:50.727Z,28.11
2024-04-10T13:37:26.789Z,27.75
2024-04-10T13:40:02.019Z,26.81
2024-04-10T13:42:35.366Z,26.89
2024-04-10T13:45:04.491Z,27.48
2024-04-10T13:47:32.361Z,27.31
2024-04-10T13:49:59.955Z,27.58
2024-04-10T13:52:29.189Z,26.69
2024-04-10T13:54:58.756Z,25.70
2024-04-10T13:57:26.366Z,25.56
2024-04-10T13:59:57.046Z,25.18
2024-04-10T14:02:25.213Z,24.95
2024-04-10T14:04:54.447Z,25.17
2024-04-10T14:07:23.832Z,25.23
2024-04-10T14:09:52.848Z,25.91
2024-04-10T14:12:20.830Z,25.88
2024-04-10T14:14:51.310Z,26.05
2024-04-10T14:17:28.636Z,26.74
2024-04-10T14:19:57.744Z,26.54
2024-04-10T14:22:25.355Z,27.44
2024-04-10T14:24:56.740Z,28.18
2024-04-10T14:27:26.612Z,28.17
2024-04-10T14:29:54.690Z,28.59
2024-04-10T14:32:25.459Z,29.88
2024-04-10T14:34:54.354Z,30.80
2024-04-10T14:37:22.630Z,30.08
2024-04-10T14:39:51.343Z,31.23
2024-04-10T14:45:07.965Z,30.89
2024-04-10T14:47:38.889Z,30.55
2024-04-10T14:50:07.931Z,31.11
2024-04-10T14:52:36.931Z,31.16
2024-04-10T14:55:04.875Z,30.96
2024-04-10T14:57:37.097Z,31.31
2024-04-10T15:00:08.427Z,31.81
2024-04-10T15:02:45.585Z,43.52
2024-04-10T15:05:14.463Z,41.80
2024-04-10T15:07:46.809Z,40.14
2024-04-10T15:10:14.777Z,37.34
2024-04-10T15:12:43.187Z,36.17
2024-04-10T15:15:15.018Z,34.30
2024-04-10T15:17:47.914Z,28.66
2024-04-10T15:20:17.471Z,32.71
2024-04-10T15:22:48.887Z,31.68
2024-04-10T15:25:17.075Z,32.51
2024-04-10T15:27:46.704Z,31.82
2024-04-10T15:30:15.685Z,32.15
2024-04-10T15:32:46.531Z,31.52
2024-04-10T15:35:14.356Z,31.32
2024-04-10T15:37:42.941Z,31.45
2024-04-10T15:40:13.018Z,31.18
2024-04-10T15:42:46.644Z,31.17
2024-04-10T15:45:18.531Z,31.43
2024-04-10T15:47:51.369Z,31.86
2024-04-10T15:50:21.245Z,31.73
2024-04-10T15:52:51.390Z,32.02
2024-04-10T15:55:21.023Z,32.34
2024-04-10T15:57:50.621Z,32.24
2024-04-10T16:00:22.508Z,33.17
2024-04-10T16:03:02.900Z,32.52
2024-04-10T16:05:34.050Z,33.75
2024-04-10T16:08:03.596Z,33.53
2024-04-10T16:10:35.847Z,34.93
2024-04-10T16:13:04.363Z,35.03
2024-04-10T16:15:32.685Z,34.30
2024-04-10T16:18:04.157Z,34.73
2024-04-10T16:20:33.168Z,34.63
2024-04-10T16:23:10.403Z,36.93
2024-04-10T16:25:38.251Z,36.45
2024-04-10T16:28:06.853Z,36.02
2024-04-10T16:30:40.544Z,36.11
2024-04-10T16:42:49.518Z,37.01
2024-04-10T16:45:25.282Z,36.80
2024-04-10T16:51:18.755Z,36.89
2024-04-10T16:53:49.728Z,37.04
2024-04-10T16:56:20.206Z,36.68
2024-04-10T16:58:48.450Z,36.83
2024-04-10T17:01:16.953Z,35.63
2024-04-10T17:03:45.799Z,35.63
2024-04-10T17:06:14.141Z,37.00
2024-04-10T17:08:42.218Z,37.94
2024-04-10T17:11:17.670Z,39.03
2024-04-10T17:13:46.592Z,39.73
2024-04-10T17:16:15.444Z,40.46
2024-04-10T17:18:45.081Z,41.41
2024-04-10T17:21:14.847Z,41.70
2024-04-10T17:23:43.756Z,41.83
2024-04-10T17:26:12.748Z,42.36
2024-04-10T17:28:43.193Z,42.92
2024-04-10T17:31:11.924Z,42.83
2024-04-10T17:33:40.964Z,42.80
2024-04-10T17:36:09.084Z,43.38
2024-04-10T17:38:37.541Z,43.42
2024-04-10T17:41:08.039Z,43.75
2024-04-10T17:43:37.571Z,44.19
2024-04-10T17:46:11.260Z,44.71
2024-04-10T17:48:40.508Z,44.61
2024-04-10T17:51:14.290Z,45.30
2024-04-10T17:53:42.462Z,45.37
2024-04-10T17:56:16.742Z,45.32
2024-04-10T17:58:45.180Z,45.55
2024-04-10T18:01:16.726Z,45.94
2024-04-10T18:03:45.808Z,45.90
2024-04-10T18:06:15.445Z,45.96
2024-04-10T18:08:46.605Z,46.19
2024-04-10T18:11:16.008Z,46.61
2024-04-10T18:13:45.743Z,46.84
2024-04-10T18:16:17.122Z,46.91
2024-04-10T18:18:47.534Z,47.09
2024-04-10T18:21:17.870Z,47.57
2024-04-10T18:23:46.518Z,47.23
2024-04-10T18:26:16.668Z,47.62
2024-04-10T18:28:44.557Z,47.95
2024-04-10T18:31:12.974Z,47.95
2024-04-10T18:33:44.739Z,47.63
2024-04-10T18:36:13.857Z,48.59
2024-04-10T18:38:42.978Z,48.25
2024-04-10T18:41:13.637Z,48.44
2024-04-10T18:43:43.677Z,48.63
2024-04-10T18:46:15.526Z,49.07
2024-04-10T18:48:46.377Z,48.38
2024-04-10T18:51:21.280Z,49.31
2024-04-10T18:53:52.928Z,48.99
2024-04-10T18:56:23.836Z,49.29
2024-04-10T18:58:52.991Z,49.50
2024-04-10T19:01:22.340Z,49.87
2024-04-10T19:03:56.729Z,49.41
2024-04-10T19:06:26.413Z,49.54
2024-04-10T19:08:54.845Z,49.69
2024-04-10T19:11:24.517Z,50.13
2024-04-10T19:13:54.246Z,50.03
2024-04-10T19:16:23.346Z,50.97
2024-04-10T19:18:56.067Z,50.60
2024-04-10T19:21:25.340Z,50.74
2024-04-10T19:23:53.930Z,50.60
2024-04-10T19:26:22.477Z,51.38
2024-04-10T19:28:52.390Z,51.29
2024-04-10T19:31:21.203Z,52.21
2024-04-10T19:33:51.293Z,51.85
2024-04-10T19:36:26.825Z,52.03
2024-04-10T19:38:55.816Z,52.16
2024-04-10T19:41:24.293Z,51.70
2024-04-10T19:43:52.582Z,52.29
2024-04-10T19:46:21.042Z,51.96
2024-04-10T19:48:50.302Z,53.20
2024-04-10T19:51:20.167Z,53.01
2024-04-10T19:53:53.656Z,53.03
2024-04-10T19:56:22.641Z,53.47
2024-04-10T19:58:51.128Z,53.40
2024-04-10T20:01:22.519Z,53.69
2024-04-10T20:03:53.299Z,54.01
2024-04-10T20:06:22.287Z,53.99
2024-04-10T20:08:57.708Z,53.65
2024-04-10T20:11:26.653Z,54.23
2024-04-10T20:13:54.990Z,54.44
2024-04-10T20:16:24.063Z,54.37
2024-04-10T20:18:52.615Z,54.33
2024-04-10T20:21:21.614Z,54.76
2024-04-10T20:23:50.855Z,54.59
2024-04-10T20:26:24.616Z,54.89
2024-04-10T20:28:52.940Z,54.90
2024-04-10T20:31:21.692Z,55.51
2024-04-10T20:33:50.668Z,55.89
2024-04-10T20:36:19.131Z,55.62
2024-04-10T20:38:48.562Z,55.47
2024-04-10T20:41:17.239Z,55.03
2024-04-10T20:43:51.182Z,55.03
2024-04-10T20:46:19.553Z,55.31
2024-04-10T20:48:51.745Z,55.20
2024-04-10T20:51:20.724Z,55.22
2024-04-10T20:53:51.666Z,55.24
2024-04-10T20:56:20.197Z,54.88
2024-04-10T20:58:51.063Z,55.58
2024-04-10T21:01:20.535Z,55.34
2024-04-10T21:03:49.572Z,56.51
2024-04-10T21:06:18.004Z,55.43
2024-04-10T21:08:48.642Z,55.44
2024-04-10T21:11:16.794Z,54.87
2024-04-10T21:13:44.305Z,56.36
2024-04-10T21:16:14.591Z,55.39
2024-04-10T21:18:42.097Z,55.47
2024-04-10T21:21:10.748Z,54.85
2024-04-10T21:23:39.707Z,55.95
2024-04-10T21:26:07.019Z,56.19
2024-04-10T21:28:35.316Z,55.75
2024-04-10T21:31:03.720Z,55.46
2024-04-10T21:33:35.022Z,55.73
2024-04-10T21:36:02.569Z,57.20
2024-04-10T21:38:30.003Z,56.47
2024-04-10T21:40:57.470Z,57.29
2024-04-10T21:43:24.957Z,57.07
2024-04-10T21:45:53.893Z,56.41
2024-04-10T21:48:21.488Z,57.58
2024-04-10T21:50:58.258Z,57.93
2024-04-10T21:53:25.676Z,58.33
2024-04-10T21:55:53.105Z,58.43
2024-04-10T21:58:20.436Z,58.51
2024-04-10T22:00:50.769Z,58.96
2024-04-10T22:03:19.602Z,59.06
2024-04-10T22:05:48.014Z,59.88
2024-04-10T22:08:19.180Z,60.59
2024-04-10T22:10:48.946Z,61.01
2024-04-10T22:13:16.357Z,61.76
2024-04-10T22:15:46.374Z,62.96
2024-04-10T22:18:14.076Z,61.98
2024-04-10T22:20:49.823Z,62.66
2024-04-10T22:23:20.139Z,62.85
2024-04-10T22:25:50.561Z,62.01
2024-04-10T22:28:17.982Z,63.53
2024-04-10T22:30:45.369Z,62.50
2024-04-10T22:33:13.193Z,63.15
2024-04-10T22:35:40.989Z,63.42
2024-04-10T22:38:08.485Z,63.24
2024-04-10T22:40:41.112Z,63.51
2024-04-10T22:43:09.054Z,64.12
2024-04-10T22:45:36.518Z,64.34
2024-04-10T22:48:04.000Z,65.65
2024-04-10T22:50:31.499Z,64.90
2024-04-10T22:52:59.038Z,65.72
2024-04-10T22:55:26.461Z,65.33
2024-04-10T22:57:56.467Z,66.25
2024-04-10T23:00:23.743Z,67.71
2024-04-10T23:02:51.241Z,67.49
2024-04-10T23:05:39.813Z,68.70
2024-04-10T23:08:28.497Z,68.25
2024-04-10T23:10:54.647Z,68.82
2024-04-10T23:13:25.045Z,69.54
2024-04-10T23:15:52.721Z,70.32
2024-04-10T23:18:31.075Z,71.42
2024-04-10T23:21:05.565Z,72.53
2024-04-10T23:23:32.915Z,73.58
2024-04-10T23:26:00.455Z,74.26
2024-04-10T23:28:30.459Z,75.39
2024-04-10T23:30:57.812Z,76.37
2024-04-10T23:33:25.370Z,77.54
2024-04-10T23:35:52.927Z,78.08
2024-04-10T23:38:20.527Z,78.13
2024-04-10T23:40:47.968Z,79.53
2024-04-10T23:43:16.255Z,81.24
2024-04-10T23:45:54.627Z,81.65
2024-04-10T23:48:22.348Z,82.75
2024-04-10T23:50:49.999Z,82.61
2024-04-10T23:53:17.324Z,82.46
2024-04-10T23:55:44.834Z,83.82
2024-04-10T23:58:12.209Z,85.49
